createdAt,value
2017-06-22T00:00:09.242Z,16.32
2017-06-22T00:00:37.440Z,16.34
2017-06-22T00:01:05.641Z,16.34
2017-06-22T00:01:33.829Z,16.34
2017-06-22T00:02:01.784Z,16.33
2017-06-22T00:02:29.811Z,16.34
2017-06-22T00:02:57.846Z,16.34
2017-06-22T00:03:25.933Z,16.34
2017-06-22T00:03:53.941Z,16.33
2017-06-22T00:04:22.041Z,16.33
2017-06-22T00:04:50.193Z,16.32
2017-06-22T00:05:18.268Z,16.39
2017-06-22T00:05:46.651Z,16.39
2017-06-22T00:06:14.783Z,16.32
2017-06-22T00:06:42.968Z,16.42
2017-06-22T00:07:11.071Z,16.36
2017-06-22T00:07:39.266Z,16.32
2017-06-22T00:08:07.386Z,16.36
2017-06-22T00:08:35.610Z,16.29
2017-06-22T00:09:03.544Z,16.36
2017-06-22T00:09:31.794Z,16.33
2017-06-22T00:09:59.979Z,16.34
2017-06-22T00:10:28.012Z,16.37
2017-06-22T00:10:56.399Z,16.34
2017-06-22T00:11:24.525Z,16.34
2017-06-22T00:11:52.485Z,16.37
2017-06-22T00:12:20.652Z,16.36
2017-06-22T00:12:48.762Z,16.36
2017-06-22T00:13:16.877Z,16.33
2017-06-22T00:13:44.871Z,16.33
2017-06-22T00:14:13.021Z,16.3
2017-06-22T00:14:41.164Z,16.33
2017-06-22T00:15:09.303Z,16.33
2017-06-22T00:15:37.487Z,16.3
2017-06-22T00:16:05.819Z,16.25
2017-06-22T00:16:33.847Z,16.3
2017-06-22T00:17:01.952Z,16.33
2017-06-22T00:17:30.172Z,16.29
2017-06-22T00:17:58.343Z,16.37
2017-06-22T00:18:26.577Z,16.3
2017-06-22T00:18:54.648Z,16.3
2017-06-22T00:19:22.893Z,16.34
2017-06-22T00:19:51.056Z,16.34
2017-06-22T00:20:19.024Z,16.34
2017-06-22T00:20:47.374Z,16.29
2017-06-22T00:21:15.513Z,16.29
2017-06-22T00:22:20.957Z,16.39
2017-06-22T00:22:49.030Z,16.32
2017-06-22T00:23:17.074Z,16.36
2017-06-22T00:23:45.179Z,16.33
2017-06-22T00:24:13.271Z,16.3
2017-06-22T00:24:41.211Z,16.33
2017-06-22T00:25:09.246Z,16.36
2017-06-22T00:25:37.405Z,16.32
2017-06-22T00:26:05.707Z,16.34
2017-06-22T00:26:33.693Z,16.37
2017-06-22T00:27:01.833Z,16.4
2017-06-22T00:27:29.962Z,16.37
2017-06-22T00:27:57.913Z,16.34
2017-06-22T00:28:25.996Z,16.27
2017-06-22T00:28:54.078Z,16.39
2017-06-22T00:29:22.298Z,16.42
2017-06-22T00:29:50.277Z,16.37
2017-06-22T00:30:18.470Z,16.37
2017-06-22T00:30:46.663Z,16.44
2017-06-22T00:31:14.965Z,16.34
2017-06-22T00:31:43.162Z,16.36
2017-06-22T00:32:11.283Z,16.36
2017-06-22T00:32:39.401Z,16.3
2017-06-22T00:33:07.373Z,16.39
2017-06-22T00:33:35.391Z,16.42
2017-06-22T00:34:03.587Z,16.48
2017-06-22T00:34:31.620Z,16.42
2017-06-22T00:34:59.792Z,16.47
2017-06-22T00:35:28.007Z,16.42
2017-06-22T00:35:56.539Z,16.39
2017-06-22T00:36:24.646Z,16.44
2017-06-22T00:36:52.745Z,16.39
2017-06-22T00:37:20.796Z,16.4
2017-06-22T00:37:48.939Z,16.47
2017-06-22T00:38:17.002Z,16.47
2017-06-22T00:38:45.171Z,16.42
2017-06-22T00:39:13.193Z,16.47
2017-06-22T00:39:41.397Z,16.44
2017-06-22T00:40:09.547Z,16.47
2017-06-22T00:40:37.689Z,16.51
2017-06-22T00:41:05.784Z,16.44
2017-06-22T00:41:33.723Z,16.44
2017-06-22T00:42:01.821Z,16.45
2017-06-22T00:42:30.037Z,16.47
2017-06-22T00:42:58.179Z,16.45
2017-06-22T00:43:26.425Z,16.52
2017-06-22T00:43:54.584Z,16.4
2017-06-22T00:44:22.689Z,16.45
2017-06-22T00:44:50.829Z,16.42
2017-06-22T00:45:18.946Z,16.44
2017-06-22T00:45:47.216Z,16.47
2017-06-22T00:46:15.782Z,16.37
2017-06-22T00:46:43.811Z,16.51
2017-06-22T00:47:12.068Z,16.48
2017-06-22T00:47:40.167Z,16.49
2017-06-22T00:48:08.368Z,16.45
2017-06-22T00:48:36.411Z,16.48
2017-06-22T00:49:04.572Z,16.44
2017-06-22T00:49:32.684Z,16.52
2017-06-22T00:50:00.680Z,16.49
2017-06-22T00:50:28.963Z,16.52
2017-06-22T00:50:57.191Z,16.48
2017-06-22T00:51:25.338Z,16.51
2017-06-22T00:51:53.545Z,16.44
2017-06-22T00:52:21.599Z,16.52
2017-06-22T00:52:49.816Z,16.48
2017-06-22T00:53:18.018Z,16.52
2017-06-22T00:53:46.043Z,16.49
2017-06-22T00:54:14.252Z,16.42
2017-06-22T00:54:42.425Z,16.44
2017-06-22T00:55:10.493Z,16.49
2017-06-22T00:55:38.618Z,16.51
2017-06-22T00:56:06.790Z,16.52
2017-06-22T00:56:35.039Z,16.51
2017-06-22T00:57:03.167Z,16.44
2017-06-22T00:57:31.184Z,16.48
2017-06-22T00:57:59.322Z,16.49
2017-06-22T00:58:27.327Z,16.54
2017-06-22T00:58:55.444Z,16.49
2017-06-22T00:59:23.677Z,16.55
2017-06-22T00:59:51.799Z,16.52
2017-06-22T01:00:19.987Z,16.49
2017-06-22T01:00:48.090Z,16.49
2017-06-22T01:01:16.498Z,16.52
2017-06-22T01:01:44.670Z,16.44
2017-06-22T01:02:12.785Z,16.51
2017-06-22T01:02:40.898Z,16.49
2017-06-22T01:03:08.715Z,16.55
2017-06-22T01:03:36.825Z,16.52
2017-06-22T01:04:05.028Z,16.58
2017-06-22T01:04:33.120Z,16.55
2017-06-22T01:05:01.148Z,16.52
2017-06-22T01:05:29.408Z,16.47
2017-06-22T01:05:57.478Z,16.48
2017-06-22T01:06:25.766Z,16.47
2017-06-22T01:06:53.862Z,16.48
2017-06-22T01:07:21.912Z,16.47
2017-06-22T01:07:49.960Z,16.49
2017-06-22T01:08:17.897Z,16.42
2017-06-22T01:08:46.112Z,16.55
2017-06-22T01:09:14.317Z,16.42
2017-06-22T01:09:42.502Z,16.51
2017-06-22T01:10:10.633Z,16.47
2017-06-22T01:10:38.762Z,16.49
2017-06-22T01:11:06.983Z,16.44
2017-06-22T01:11:35.237Z,16.51
2017-06-22T01:12:03.379Z,16.45
2017-06-22T01:12:31.414Z,16.45
2017-06-22T01:12:59.619Z,16.49
2017-06-22T01:13:27.773Z,16.45
2017-06-22T01:13:55.811Z,16.48
2017-06-22T01:14:24.025Z,16.47
2017-06-22T01:14:52.033Z,16.45
2017-06-22T01:15:20.998Z,16.52
2017-06-22T01:15:49.056Z,16.52
2017-06-22T01:16:17.272Z,16.47
2017-06-22T01:16:45.318Z,16.42
2017-06-22T01:17:13.405Z,16.51
2017-06-22T01:17:41.623Z,16.49
2017-06-22T01:18:09.669Z,16.42
2017-06-22T01:18:37.821Z,16.44
2017-06-22T01:19:06.037Z,16.44
2017-06-22T01:19:34.180Z,16.49
2017-06-22T01:20:02.410Z,16.4
2017-06-22T01:20:30.520Z,16.45
2017-06-22T01:20:58.791Z,16.51
2017-06-22T01:21:26.977Z,16.54
2017-06-22T01:21:55.333Z,16.49
2017-06-22T01:22:23.578Z,16.47
2017-06-22T01:22:51.713Z,16.47
2017-06-22T01:23:19.925Z,16.52
2017-06-22T01:23:48.067Z,16.55
2017-06-22T01:24:16.180Z,16.49
2017-06-22T01:24:44.212Z,16.55
2017-06-22T01:25:12.107Z,16.51
2017-06-22T01:25:40.254Z,16.48
2017-06-22T01:26:08.368Z,16.51
2017-06-22T01:26:36.711Z,16.49
2017-06-22T01:27:04.811Z,16.47
2017-06-22T01:27:32.895Z,16.47
2017-06-22T01:28:01.116Z,16.42
2017-06-22T01:28:29.251Z,16.52
2017-06-22T01:28:57.437Z,16.51
2017-06-22T01:29:25.550Z,16.48
2017-06-22T01:29:53.583Z,16.42
2017-06-22T01:30:21.707Z,16.44
2017-06-22T01:30:49.926Z,16.48
2017-06-22T01:31:18.142Z,16.47
2017-06-22T01:31:46.498Z,16.51
2017-06-22T01:32:14.650Z,16.55
2017-06-22T01:32:42.787Z,16.4
2017-06-22T01:33:10.906Z,16.44
2017-06-22T01:33:39.138Z,16.45
2017-06-22T01:34:07.282Z,16.47
2017-06-22T01:34:35.363Z,16.42
2017-06-22T01:35:03.503Z,16.49
2017-06-22T01:35:31.640Z,16.47
2017-06-22T01:35:59.554Z,16.52
2017-06-22T01:36:27.485Z,16.49
2017-06-22T01:36:55.587Z,16.49
2017-06-22T01:37:23.814Z,16.48
2017-06-22T01:37:51.908Z,16.51
2017-06-22T01:38:20.158Z,16.48
2017-06-22T01:38:48.403Z,16.52
2017-06-22T01:39:16.422Z,16.48
2017-06-22T01:39:44.544Z,16.55
2017-06-22T01:40:12.675Z,16.49
2017-06-22T01:40:40.861Z,16.54
2017-06-22T01:41:08.996Z,16.52
2017-06-22T01:41:37.242Z,16.57
2017-06-22T01:42:05.389Z,16.52
2017-06-22T01:42:33.514Z,16.49
2017-06-22T01:43:01.600Z,16.52
2017-06-22T01:43:29.820Z,16.51
2017-06-22T01:43:57.946Z,16.49
2017-06-22T01:44:25.965Z,16.49
2017-06-22T01:44:54.091Z,16.54
2017-06-22T01:45:22.175Z,16.55
2017-06-22T01:45:50.297Z,16.49
2017-06-22T01:46:18.292Z,16.48
2017-06-22T01:46:46.405Z,16.48
2017-06-22T01:47:14.623Z,16.52
2017-06-22T01:47:42.704Z,16.52
2017-06-22T01:48:10.929Z,16.48
2017-06-22T01:48:39.121Z,16.55
2017-06-22T01:49:07.108Z,16.47
2017-06-22T01:49:35.250Z,16.49
2017-06-22T01:50:03.476Z,16.52
2017-06-22T01:50:31.543Z,16.51
2017-06-22T01:50:59.685Z,16.51
2017-06-22T01:51:27.734Z,16.51
2017-06-22T01:51:55.975Z,16.52
2017-06-22T01:52:24.007Z,16.49
2017-06-22T01:52:52.228Z,16.48
2017-06-22T01:53:20.266Z,16.49
2017-06-22T01:53:48.384Z,16.49
2017-06-22T01:54:16.569Z,16.54
2017-06-22T01:54:44.795Z,16.52
2017-06-22T01:55:12.910Z,16.49
2017-06-22T01:55:41.155Z,16.49
2017-06-22T01:56:09.359Z,16.49
2017-06-22T01:56:37.475Z,16.44
2017-06-22T01:57:05.693Z,16.44
2017-06-22T01:57:33.887Z,16.48
2017-06-22T01:58:02.048Z,16.48
2017-06-22T01:58:30.226Z,16.48
2017-06-22T01:58:58.150Z,16.45
2017-06-22T01:59:26.290Z,16.51
2017-06-22T01:59:54.460Z,16.49
2017-06-22T02:00:22.566Z,16.48
2017-06-22T02:00:50.768Z,16.54
2017-06-22T02:01:18.985Z,16.52
2017-06-22T02:01:47.120Z,16.47
2017-06-22T02:02:15.483Z,16.45
2017-06-22T02:02:43.715Z,16.55
2017-06-22T02:03:11.821Z,16.49
2017-06-22T02:03:40.046Z,16.49
2017-06-22T02:04:08.143Z,16.54
2017-06-22T02:04:36.272Z,16.47
2017-06-22T02:05:04.515Z,16.45
2017-06-22T02:05:32.689Z,16.55
2017-06-22T02:06:00.911Z,16.51
2017-06-22T02:06:29.040Z,16.55
2017-06-22T02:06:57.249Z,16.49
2017-06-22T02:07:25.721Z,16.55
2017-06-22T02:07:53.816Z,16.48
2017-06-22T02:08:21.834Z,16.52
2017-06-22T02:08:50.080Z,16.49
2017-06-22T02:09:18.334Z,16.52
2017-06-22T02:09:46.369Z,16.49
2017-06-22T02:10:14.396Z,16.54
2017-06-22T02:10:42.402Z,16.51
2017-06-22T02:11:10.650Z,16.55
2017-06-22T02:11:38.864Z,16.54
2017-06-22T02:12:07.071Z,16.51
2017-06-22T02:12:35.180Z,16.54
2017-06-22T02:13:03.311Z,16.54
2017-06-22T02:13:31.348Z,16.54
2017-06-22T02:13:59.591Z,16.49
2017-06-22T02:14:27.721Z,16.57
2017-06-22T02:14:55.748Z,16.52
2017-06-22T02:15:23.942Z,16.57
2017-06-22T02:15:52.071Z,16.55
2017-06-22T02:16:20.114Z,16.54
2017-06-22T02:16:48.343Z,16.55
2017-06-22T02:17:16.626Z,16.59
2017-06-22T02:17:44.843Z,16.54
2017-06-22T02:18:12.953Z,16.55
2017-06-22T02:18:41.182Z,16.54
2017-06-22T02:19:09.382Z,16.57
2017-06-22T02:19:37.659Z,16.59
2017-06-22T02:20:05.882Z,16.52
2017-06-22T02:20:34.026Z,16.55
2017-06-22T02:21:02.151Z,16.62
2017-06-22T02:21:30.198Z,16.58
2017-06-22T02:21:58.394Z,16.54
2017-06-22T02:22:26.638Z,16.55
2017-06-22T02:22:54.866Z,16.52
2017-06-22T02:23:23.067Z,16.52
2017-06-22T02:23:51.092Z,16.54
2017-06-22T02:24:19.204Z,16.58
2017-06-22T02:24:47.220Z,16.51
2017-06-22T02:25:15.441Z,16.48
2017-06-22T02:25:43.667Z,16.54
2017-06-22T02:26:11.839Z,16.52
2017-06-22T02:26:40.047Z,16.54
2017-06-22T02:27:08.249Z,16.54
2017-06-22T02:27:36.351Z,16.48
2017-06-22T02:28:04.434Z,16.54
2017-06-22T02:28:32.570Z,16.54
2017-06-22T02:29:00.688Z,16.54
2017-06-22T02:29:28.825Z,16.51
2017-06-22T02:29:56.932Z,16.51
2017-06-22T02:30:25.200Z,16.55
2017-06-22T02:30:53.316Z,16.51
2017-06-22T02:31:21.359Z,16.48
2017-06-22T02:31:49.495Z,16.51
2017-06-22T02:32:17.760Z,16.54
2017-06-22T02:32:46.146Z,16.51
2017-06-22T02:33:14.082Z,16.54
2017-06-22T02:33:42.302Z,16.51
2017-06-22T02:34:10.440Z,16.55
2017-06-22T02:34:38.464Z,16.57
2017-06-22T02:35:06.505Z,16.52
2017-06-22T02:35:34.465Z,16.52
2017-06-22T02:36:02.612Z,16.55
2017-06-22T02:36:30.734Z,16.52
2017-06-22T02:36:58.707Z,16.54
2017-06-22T02:37:26.808Z,16.54
2017-06-22T02:37:54.987Z,16.52
2017-06-22T02:38:23.042Z,16.55
2017-06-22T02:38:51.195Z,16.52
2017-06-22T02:39:19.297Z,16.51
2017-06-22T02:39:47.509Z,16.55
2017-06-22T02:40:15.733Z,16.55
2017-06-22T02:40:43.916Z,16.52
2017-06-22T02:41:12.086Z,16.52
2017-06-22T02:41:40.241Z,16.57
2017-06-22T02:42:08.471Z,16.54
2017-06-22T02:42:36.737Z,16.54
2017-06-22T02:43:04.822Z,16.55
2017-06-22T02:43:32.873Z,16.52
2017-06-22T02:44:00.955Z,16.54
2017-06-22T02:44:28.992Z,16.54
2017-06-22T02:44:57.083Z,16.55
2017-06-22T02:45:25.213Z,16.59
2017-06-22T02:45:53.349Z,16.55
2017-06-22T02:46:21.365Z,16.51
2017-06-22T02:46:49.481Z,16.57
2017-06-22T02:47:17.705Z,16.52
2017-06-22T02:47:46.065Z,16.54
2017-06-22T02:48:14.153Z,16.55
2017-06-22T02:48:42.337Z,16.59
2017-06-22T02:49:10.539Z,16.57
2017-06-22T02:49:38.775Z,16.58
2017-06-22T02:50:06.867Z,16.55
2017-06-22T02:50:34.947Z,16.58
2017-06-22T02:51:02.950Z,16.55
2017-06-22T02:51:31.166Z,16.52
2017-06-22T02:51:59.275Z,16.52
2017-06-22T02:52:27.299Z,16.52
2017-06-22T02:52:55.728Z,16.54
2017-06-22T02:53:23.924Z,16.52
2017-06-22T02:53:52.089Z,16.49
2017-06-22T02:54:20.294Z,16.49
2017-06-22T02:54:48.523Z,16.51
2017-06-22T02:55:16.644Z,16.48
2017-06-22T02:55:44.857Z,16.55
2017-06-22T02:56:12.947Z,16.49
2017-06-22T02:56:41.134Z,16.55
2017-06-22T02:57:09.333Z,16.45
2017-06-22T02:57:37.548Z,16.57
2017-06-22T02:58:05.954Z,16.48
2017-06-22T02:58:34.090Z,16.49
2017-06-22T02:59:02.275Z,16.48
2017-06-22T02:59:30.484Z,16.49
2017-06-22T02:59:58.539Z,16.48
2017-06-22T03:00:26.752Z,16.48
2017-06-22T03:00:54.998Z,16.51
2017-06-22T03:01:23.100Z,16.49
2017-06-22T03:01:51.130Z,16.47
2017-06-22T03:02:19.312Z,16.42
2017-06-22T03:02:47.571Z,16.49
2017-06-22T03:03:15.670Z,16.42
2017-06-22T03:03:43.771Z,16.47
2017-06-22T03:04:11.912Z,16.51
2017-06-22T03:04:39.927Z,16.44
2017-06-22T03:05:08.019Z,16.52
2017-06-22T03:05:36.141Z,16.48
2017-06-22T03:06:04.343Z,16.4
2017-06-22T03:06:32.535Z,16.47
2017-06-22T03:07:00.737Z,16.42
2017-06-22T03:07:28.939Z,16.48
2017-06-22T03:07:57.291Z,16.42
2017-06-22T03:08:25.411Z,16.44
2017-06-22T03:08:53.607Z,16.4
2017-06-22T03:09:21.847Z,16.42
2017-06-22T03:09:50.034Z,16.42
2017-06-22T03:10:18.231Z,16.39
2017-06-22T03:10:46.339Z,16.4
2017-06-22T03:11:14.346Z,16.45
2017-06-22T03:11:42.576Z,16.33
2017-06-22T03:12:10.521Z,16.34
2017-06-22T03:12:38.630Z,16.36
2017-06-22T03:13:06.913Z,16.36
2017-06-22T03:13:34.927Z,16.32
2017-06-22T03:14:03.164Z,16.36
2017-06-22T03:14:31.302Z,16.39
2017-06-22T03:14:59.412Z,16.39
2017-06-22T03:15:27.418Z,16.3
2017-06-22T03:15:55.539Z,16.3
2017-06-22T03:16:23.454Z,16.29
2017-06-22T03:16:51.597Z,16.29
2017-06-22T03:17:19.698Z,16.3
2017-06-22T03:17:47.921Z,16.32
2017-06-22T03:18:16.030Z,16.29
2017-06-22T03:18:44.127Z,16.33
2017-06-22T03:19:12.270Z,16.33
2017-06-22T03:19:40.505Z,16.27
2017-06-22T03:20:08.625Z,16.3
2017-06-22T03:20:36.887Z,16.29
2017-06-22T03:21:05.037Z,16.29
2017-06-22T03:21:33.146Z,16.29
2017-06-22T03:22:01.245Z,16.3
2017-06-22T03:22:29.387Z,16.27
2017-06-22T03:22:57.507Z,16.34
2017-06-22T03:23:25.725Z,16.26
2017-06-22T03:23:53.640Z,16.27
2017-06-22T03:24:21.843Z,16.3
2017-06-22T03:24:49.826Z,16.33
2017-06-22T03:25:17.900Z,16.27
2017-06-22T03:25:45.807Z,16.22
2017-06-22T03:26:14.034Z,16.25
2017-06-22T03:26:42.130Z,16.27
2017-06-22T03:27:10.251Z,16.27
2017-06-22T03:27:38.272Z,16.26
2017-06-22T03:28:06.731Z,16.22
2017-06-22T03:28:34.846Z,16.26
2017-06-22T03:29:02.841Z,16.25
2017-06-22T03:29:31.032Z,16.29
2017-06-22T03:29:59.260Z,16.27
2017-06-22T03:30:27.415Z,16.29
2017-06-22T03:30:55.668Z,16.32
2017-06-22T03:31:23.872Z,16.32
2017-06-22T03:31:52.078Z,16.27
2017-06-22T03:32:20.222Z,16.29
2017-06-22T03:32:48.436Z,16.27
2017-06-22T03:33:16.797Z,16.26
2017-06-22T03:33:44.908Z,16.3
2017-06-22T03:34:12.818Z,16.34
2017-06-22T03:34:40.965Z,16.29
2017-06-22T03:35:09.204Z,16.33
2017-06-22T03:35:37.445Z,16.34
2017-06-22T03:36:05.562Z,16.3
2017-06-22T03:36:33.707Z,16.25
2017-06-22T03:37:01.830Z,16.34
2017-06-22T03:37:29.934Z,16.32
2017-06-22T03:37:57.974Z,16.29
2017-06-22T03:38:26.277Z,16.27
2017-06-22T03:38:54.515Z,16.29
2017-06-22T03:39:22.529Z,16.32
2017-06-22T03:39:50.649Z,16.29
2017-06-22T03:40:18.784Z,16.26
2017-06-22T03:40:46.632Z,16.27
2017-06-22T03:41:14.839Z,16.33
2017-06-22T03:41:42.990Z,16.3
2017-06-22T03:42:11.126Z,16.16
2017-06-22T03:42:39.318Z,16.21
2017-06-22T03:43:07.379Z,16.17
2017-06-22T03:43:35.673Z,16.25
2017-06-22T03:44:03.668Z,16.21
2017-06-22T03:44:31.627Z,16.21
2017-06-22T03:44:59.667Z,16.16
2017-06-22T03:45:27.796Z,16.16
2017-06-22T03:45:55.981Z,16.21
2017-06-22T03:46:24.095Z,16.17
2017-06-22T03:46:52.112Z,16.18
2017-06-22T03:47:20.109Z,16.18
2017-06-22T03:47:48.243Z,16.11
2017-06-22T03:48:16.480Z,16.1
2017-06-22T03:48:44.688Z,16.1
2017-06-22T03:49:12.779Z,16.08
2017-06-22T03:49:40.983Z,16.14
2017-06-22T03:50:09.213Z,16.13
2017-06-22T03:50:37.370Z,16.13
2017-06-22T03:51:05.621Z,16.11
2017-06-22T03:51:33.667Z,16.14
2017-06-22T03:52:01.752Z,16.18
2017-06-22T03:52:29.931Z,16.16
2017-06-22T03:52:58.057Z,16.25
2017-06-22T03:53:26.201Z,16.16
2017-06-22T03:53:54.405Z,16.17
2017-06-22T03:54:22.341Z,16.18
2017-06-22T03:54:50.569Z,16.18
2017-06-22T03:55:18.836Z,16.21
2017-06-22T03:55:46.965Z,16.25
2017-06-22T03:56:15.125Z,16.25
2017-06-22T03:56:43.230Z,16.25
2017-06-22T03:57:11.268Z,16.27
2017-06-22T03:57:39.480Z,16.22
2017-06-22T03:58:07.601Z,16.29
2017-06-22T03:58:35.909Z,16.29
2017-06-22T03:59:04.044Z,16.3
2017-06-22T03:59:31.870Z,16.29
2017-06-22T03:59:59.889Z,16.29
2017-06-22T04:00:27.902Z,16.26
2017-06-22T04:00:56.122Z,16.33
2017-06-22T04:01:24.255Z,16.25
2017-06-22T04:01:52.302Z,16.18
2017-06-22T04:02:20.527Z,16.32
2017-06-22T04:02:48.754Z,16.3
2017-06-22T04:03:16.772Z,16.21
2017-06-22T04:03:45.084Z,16.26
2017-06-22T04:04:13.076Z,16.29
2017-06-22T04:04:41.176Z,16.26
2017-06-22T04:05:09.322Z,16.22
2017-06-22T04:05:37.448Z,16.14
2017-06-22T04:06:05.579Z,16.3
2017-06-22T04:06:33.589Z,16.26
2017-06-22T04:07:01.772Z,16.25
2017-06-22T04:07:29.830Z,16.25
2017-06-22T04:07:58.019Z,16.29
2017-06-22T04:08:26.096Z,16.27
2017-06-22T04:09:37.086Z,16.25
2017-06-22T04:10:05.024Z,16.22
2017-06-22T04:10:33.251Z,16.25
2017-06-22T04:11:01.477Z,16.14
2017-06-22T04:11:29.730Z,16.18
2017-06-22T04:11:57.943Z,16.21
2017-06-22T04:12:26.189Z,16.26
2017-06-22T04:12:54.379Z,16.21
2017-06-22T04:13:22.460Z,16.22
2017-06-22T04:13:50.622Z,16.17
2017-06-22T04:14:18.670Z,16.21
2017-06-22T04:14:46.789Z,16.26
2017-06-22T04:15:14.845Z,16.16
2017-06-22T04:15:43.040Z,16.14
2017-06-22T04:16:11.242Z,16.14
2017-06-22T04:16:39.339Z,16.21
2017-06-22T04:17:07.554Z,16.22
2017-06-22T04:17:35.752Z,16.26
2017-06-22T04:18:03.980Z,16.14
2017-06-22T04:18:32.000Z,16.22
2017-06-22T04:19:00.356Z,16.17
2017-06-22T04:19:28.445Z,16.25
2017-06-22T04:19:56.629Z,16.18
2017-06-22T04:20:24.823Z,16.18
2017-06-22T04:20:52.987Z,16.25
2017-06-22T04:21:21.195Z,16.14
2017-06-22T04:21:49.306Z,16.13
2017-06-22T04:22:17.411Z,16.22
2017-06-22T04:22:45.514Z,16.34
2017-06-22T04:23:13.759Z,16.29
2017-06-22T04:23:42.015Z,16.25
2017-06-22T04:24:10.158Z,16.3
2017-06-22T04:24:38.341Z,16.32
2017-06-22T04:25:06.585Z,16.37
2017-06-22T04:25:34.644Z,16.32
2017-06-22T04:26:02.832Z,16.26
2017-06-22T04:26:30.990Z,16.3
2017-06-22T04:26:59.114Z,16.32
2017-06-22T04:27:27.297Z,16.22
2017-06-22T04:27:55.450Z,16.27
2017-06-22T04:28:23.664Z,16.26
2017-06-22T04:28:51.977Z,16.26
2017-06-22T04:29:20.063Z,16.27
2017-06-22T04:29:48.239Z,16.29
2017-06-22T04:30:16.608Z,16.3
2017-06-22T04:30:45.314Z,16.32
2017-06-22T04:31:13.347Z,16.27
2017-06-22T04:31:41.588Z,16.33
2017-06-22T04:32:09.824Z,16.29
2017-06-22T04:32:37.906Z,16.3
2017-06-22T04:33:06.648Z,16.33
2017-06-22T04:33:34.823Z,16.34
2017-06-22T04:34:02.955Z,16.32
2017-06-22T04:34:31.166Z,16.33
2017-06-22T04:34:59.365Z,16.4
2017-06-22T04:35:27.574Z,16.36
2017-06-22T04:35:55.743Z,16.33
2017-06-22T04:36:23.852Z,16.39
2017-06-22T04:36:51.908Z,16.37
2017-06-22T04:37:20.136Z,16.36
2017-06-22T04:37:48.305Z,16.33
2017-06-22T04:38:16.526Z,16.39
2017-06-22T04:38:44.539Z,16.33
2017-06-22T04:39:12.811Z,16.37
2017-06-22T04:39:40.906Z,16.37
2017-06-22T04:40:09.024Z,16.33
2017-06-22T04:40:37.020Z,16.34
2017-06-22T04:41:05.161Z,16.37
2017-06-22T04:41:33.247Z,16.36
2017-06-22T04:42:01.360Z,16.37
2017-06-22T04:42:29.483Z,16.32
2017-06-22T04:42:57.649Z,16.4
2017-06-22T04:43:25.699Z,16.39
2017-06-22T04:43:53.845Z,16.37
2017-06-22T04:44:22.232Z,16.37
2017-06-22T04:44:50.423Z,16.33
2017-06-22T04:45:18.658Z,16.39
2017-06-22T04:45:46.578Z,16.42
2017-06-22T04:46:15.704Z,16.37
2017-06-22T04:46:45.029Z,16.32
2017-06-22T04:47:13.485Z,16.39
2017-06-22T04:47:41.582Z,16.36
2017-06-22T04:48:09.975Z,16.37
2017-06-22T04:48:38.169Z,16.37
2017-06-22T04:49:06.381Z,16.39
2017-06-22T04:49:34.485Z,16.33
2017-06-22T04:50:02.643Z,16.34
2017-06-22T04:50:30.844Z,16.33
2017-06-22T04:50:59.022Z,16.39
2017-06-22T04:51:27.251Z,16.37
2017-06-22T04:51:56.189Z,16.39
2017-06-22T04:52:24.687Z,16.34
2017-06-22T04:52:52.940Z,16.37
2017-06-22T04:53:21.847Z,16.36
2017-06-22T04:53:51.863Z,16.39
2017-06-22T04:54:22.288Z,16.39
2017-06-22T04:54:50.525Z,16.42
2017-06-22T04:55:18.744Z,16.44
2017-06-22T04:55:46.870Z,16.47
2017-06-22T04:56:14.928Z,16.45
2017-06-22T04:56:43.173Z,16.42
2017-06-22T04:57:11.350Z,16.45
2017-06-22T04:57:39.504Z,16.49
2017-06-22T04:58:07.684Z,16.47
2017-06-22T04:58:35.906Z,16.54
2017-06-22T04:59:04.025Z,16.44
2017-06-22T04:59:32.219Z,16.42
2017-06-22T05:00:00.447Z,16.47
2017-06-22T05:00:28.689Z,16.47
2017-06-22T05:00:56.719Z,16.52
2017-06-22T05:01:25.023Z,16.51
2017-06-22T05:01:53.161Z,16.48
2017-06-22T05:02:21.279Z,16.52
2017-06-22T05:02:49.447Z,16.42
2017-06-22T05:03:17.607Z,16.52
2017-06-22T05:03:45.743Z,16.47
2017-06-22T05:04:13.852Z,16.52
2017-06-22T05:04:42.054Z,16.51
2017-06-22T05:05:10.041Z,16.49
2017-06-22T05:05:37.994Z,16.48
2017-06-22T05:06:06.209Z,16.49
2017-06-22T05:06:34.451Z,16.47
2017-06-22T05:07:02.642Z,16.47
2017-06-22T05:07:30.666Z,16.48
2017-06-22T05:07:58.809Z,16.44
2017-06-22T05:08:27.030Z,16.48
2017-06-22T05:08:55.232Z,16.39
2017-06-22T05:09:23.676Z,16.36
2017-06-22T05:09:51.815Z,16.36
2017-06-22T05:10:20.012Z,16.39
2017-06-22T05:10:48.183Z,16.42
2017-06-22T05:11:16.285Z,16.42
2017-06-22T05:11:44.377Z,16.4
2017-06-22T05:12:12.521Z,16.37
2017-06-22T05:12:40.559Z,16.36
2017-06-22T05:13:08.780Z,16.36
2017-06-22T05:13:36.946Z,16.4
2017-06-22T05:14:05.009Z,16.37
2017-06-22T05:14:33.145Z,16.37
2017-06-22T05:15:01.281Z,16.39
2017-06-22T05:15:29.478Z,16.36
2017-06-22T05:15:57.606Z,16.33
2017-06-22T05:16:25.574Z,16.33
2017-06-22T05:16:53.749Z,16.32
2017-06-22T05:17:21.966Z,16.25
2017-06-22T05:17:50.108Z,16.26
2017-06-22T05:18:18.184Z,16.3
2017-06-22T05:18:46.222Z,16.16
2017-06-22T05:19:14.230Z,16.29
2017-06-22T05:19:42.575Z,16.26
2017-06-22T05:20:10.790Z,16.13
2017-06-22T05:20:38.988Z,16.25
2017-06-22T05:21:07.146Z,16.3
2017-06-22T05:21:35.292Z,16.25
2017-06-22T05:22:03.509Z,16.27
2017-06-22T05:22:31.580Z,16.25
2017-06-22T05:22:59.593Z,16.22
2017-06-22T05:23:27.718Z,16.21
2017-06-22T05:23:55.864Z,16.17
2017-06-22T05:24:23.989Z,16.22
2017-06-22T05:24:51.828Z,16.18
2017-06-22T05:25:20.038Z,16.16
2017-06-22T05:25:48.235Z,16.17
2017-06-22T05:26:16.488Z,16.22
2017-06-22T05:26:44.740Z,16.16
2017-06-22T05:27:12.854Z,16.17
2017-06-22T05:27:41.059Z,16.16
2017-06-22T05:28:09.188Z,16.21
2017-06-22T05:28:37.211Z,16.18
2017-06-22T05:29:05.219Z,16.22
2017-06-22T05:29:33.425Z,16.14
2017-06-22T05:30:01.600Z,16.17
2017-06-22T05:30:29.792Z,16.22
2017-06-22T05:30:57.789Z,16.21
2017-06-22T05:31:25.990Z,16.21
2017-06-22T05:31:54.123Z,16.16
2017-06-22T05:32:22.253Z,16.22
2017-06-22T05:32:50.507Z,16.16
2017-06-22T05:33:18.566Z,16.17
2017-06-22T05:33:46.655Z,16.21
2017-06-22T05:34:14.934Z,16.11
2017-06-22T05:34:43.298Z,16.22
2017-06-22T05:35:11.401Z,16.14
2017-06-22T05:35:39.455Z,16.16
2017-06-22T05:36:07.701Z,16.07
2017-06-22T05:36:35.939Z,16.13
2017-06-22T05:37:04.091Z,16.11
2017-06-22T05:37:32.048Z,16.06
2017-06-22T05:38:00.277Z,15.98
2017-06-22T05:38:28.227Z,16.11
2017-06-22T05:38:56.425Z,16.07
2017-06-22T05:39:24.514Z,16.08
2017-06-22T05:39:52.854Z,15.99
2017-06-22T05:40:20.950Z,16
2017-06-22T05:40:49.075Z,15.99
2017-06-22T05:41:17.100Z,16
2017-06-22T05:41:45.294Z,15.99
2017-06-22T05:42:13.298Z,15.96
2017-06-22T05:42:41.494Z,15.98
2017-06-22T05:43:09.506Z,15.91
2017-06-22T05:43:37.484Z,16.06
2017-06-22T05:44:05.706Z,15.96
2017-06-22T05:44:33.680Z,15.95
2017-06-22T05:45:01.916Z,15.99
2017-06-22T05:45:29.934Z,16.06
2017-06-22T05:45:57.965Z,16.1
2017-06-22T05:46:25.948Z,16.07
2017-06-22T05:46:53.958Z,16.08
2017-06-22T05:47:22.059Z,16.02
2017-06-22T05:47:50.082Z,16
2017-06-22T05:48:18.122Z,15.96
2017-06-22T05:48:46.238Z,16.06
2017-06-22T05:49:14.144Z,16.02
2017-06-22T05:49:42.453Z,16.08
2017-06-22T05:50:10.620Z,16.11
2017-06-22T05:50:38.813Z,16.11
2017-06-22T05:51:06.910Z,16
2017-06-22T05:51:35.011Z,16.11
2017-06-22T05:52:03.217Z,15.98
2017-06-22T05:52:31.407Z,16.04
2017-06-22T05:52:59.693Z,16.04
2017-06-22T05:53:27.854Z,16.11
2017-06-22T05:53:55.873Z,16.06
2017-06-22T05:54:23.961Z,16.08
2017-06-22T05:54:52.103Z,16.04
2017-06-22T05:55:20.003Z,16.11
2017-06-22T05:55:48.136Z,16.06
2017-06-22T05:56:16.262Z,16.08
2017-06-22T05:56:44.508Z,16.08
2017-06-22T05:57:12.624Z,16.08
2017-06-22T05:57:40.641Z,16.1
2017-06-22T05:58:08.777Z,16.08
2017-06-22T05:58:36.965Z,16.06
2017-06-22T05:59:05.186Z,15.99
2017-06-22T05:59:33.214Z,16.04
2017-06-22T06:00:01.413Z,16.13
2017-06-22T06:00:29.513Z,16.02
2017-06-22T06:00:57.598Z,16.06
2017-06-22T06:01:25.840Z,15.99
2017-06-22T06:01:53.795Z,16.17
2017-06-22T06:02:21.988Z,16.02
2017-06-22T06:02:50.077Z,16.11
2017-06-22T06:03:18.011Z,16.07
2017-06-22T06:03:46.190Z,16.08
2017-06-22T06:04:14.315Z,16.06
2017-06-22T06:04:42.419Z,15.98